sensor_id;sensor_type;location;lat;lon;timestamp;pressure;altitude;pressure_sealevel;temperature;humidity
65276;BME280;51875;49.994;14.052;2023-01-16T00:00:31;97292.28;;;3.74;100.00
65276;BME280;51875;49.994;14.052;2023-01-16T00:02:07;97298.28;;;3.76;100.00
65276;BME280;51875;49.994;14.052;2023-01-16T00:03:22;97298.47;;;3.65;100.00
65276;BME280;51875;49.994;14.052;2023-01-16T00:04:38;97295.78;;;3.70;100.00
65276;BME280;51875;49.994;14.052;2023-01-16T00:05:54;97293.25;;;3.68;100.00
65276;BME280;51875;49.994;14.052;2023-01-16T00:07:09;97292.41;;;3.66;100.00
65276;BME280;51875;49.994;14.052;2023-01-16T00:08:25;97292.44;;;3.64;100.00
65276;BME280;51875;49.994;14.052;2023-01-16T00:09:41;97292.22;;;3.75;100.00
65276;BME280;51875;49.994;14.052;2023-01-16T00:10:56;97297.25;;;3.85;100.00
65276;BME280;51875;49.994;14.052;2023-01-16T00:12:12;97289.31;;;3.92;100.00
65276;BME280;51875;49.994;14.052;2023-01-16T00:13:28;97286.78;;;3.89;100.00
65276;BME280;51875;49.994;14.052;2023-01-16T00:14:54;97284.47;;;3.75;100.00
65276;BME280;51875;49.994;14.052;2023-01-16T00:16:09;97294.88;;;3.74;100.00
65276;BME280;51875;49.994;14.052;2023-01-16T00:17:25;97290.75;;;3.62;100.00
65276;BME280;51875;49.994;14.052;2023-01-16T00:18:40;97287.31;;;3.61;100.00
65276;BME280;51875;49.994;14.052;2023-01-16T00:19:56;97278.44;;;3.75;100.00
65276;BME280;51875;49.994;14.052;2023-01-16T00:21:12;97280.91;;;3.81;100.00
65276;BME280;51875;49.994;14.052;2023-01-16T00:22:28;97278.31;;;3.81;100.00
65276;BME280;51875;49.994;14.052;2023-01-16T00:23:43;97268.81;;;3.81;100.00
65276;BME280;51875;49.994;14.052;2023-01-16T00:24:59;97264.69;;;3.73;100.00
65276;BME280;51875;49.994;14.052;2023-01-16T00:26:14;97256.69;;;3.85;100.00
65276;BME280;51875;49.994;14.052;2023-01-16T00:27:30;97261.13;;;3.78;100.00
65276;BME280;51875;49.994;14.052;2023-01-16T00:28:46;97265.44;;;3.76;100.00
65276;BME280;51875;49.994;14.052;2023-01-16T00:30:03;97258.78;;;3.64;100.00
65276;BME280;51875;49.994;14.052;2023-01-16T00:31:19;97250.84;;;3.74;100.00
65276;BME280;51875;49.994;14.052;2023-01-16T00:32:35;97253.59;;;3.66;100.00
65276;BME280;51875;49.994;14.052;2023-01-16T00:33:51;97254.72;;;3.52;100.00
65276;BME280;51875;49.994;14.052;2023-01-16T00:35:07;97250.13;;;3.67;100.00
65276;BME280;51875;49.994;14.052;2023-01-16T00:36:23;97244.06;;;3.68;100.00
65276;BME280;51875;49.994;14.052;2023-01-16T00:37:39;97251.78;;;3.70;100.00
65276;BME280;51875;49.994;14.052;2023-01-16T00:38:54;97246.00;;;3.55;100.00
65276;BME280;51875;49.994;14.052;2023-01-16T00:40:11;97243.25;;;3.64;100.00
65276;BME280;51875;49.994;14.052;2023-01-16T00:41:27;97247.53;;;3.67;100.00
65276;BME280;51875;49.994;14.052;2023-01-16T00:42:42;97245.13;;;3.56;100.00
65276;BME280;51875;49.994;14.052;2023-01-16T00:43:58;97246.50;;;3.74;100.00
65276;BME280;51875;49.994;14.052;2023-01-16T00:45:14;97248.19;;;3.78;100.00
65276;BME280;51875;49.994;14.052;2023-01-16T00:46:29;97247.19;;;3.84;100.00
65276;BME280;51875;49.994;14.052;2023-01-16T00:47:45;97249.16;;;3.71;100.00
65276;BME280;51875;49.994;14.052;2023-01-16T00:49:01;97250.00;;;3.73;100.00
65276;BME280;51875;49.994;14.052;2023-01-16T00:50:16;97249.44;;;3.57;100.00
65276;BME280;51875;49.994;14.052;2023-01-16T00:51:32;97249.31;;;3.65;100.00
65276;BME280;51875;49.994;14.052;2023-01-16T00:52:48;97243.91;;;3.74;100.00
65276;BME280;51875;49.994;14.052;2023-01-16T00:54:03;97251.66;;;3.76;100.00
65276;BME280;51875;49.994;14.052;2023-01-16T00:55:19;97245.13;;;3.56;100.00
65276;BME280;51875;49.994;14.052;2023-01-16T00:56:35;97252.84;;;3.59;100.00
65276;BME280;51875;49.994;14.052;2023-01-16T00:57:50;97257.31;;;3.52;100.00
65276;BME280;51875;49.994;14.052;2023-01-16T00:59:06;97239.06;;;3.59;100.00
65276;BME280;51875;49.994;14.052;2023-01-16T01:00:22;97250.00;;;3.73;100.00
65276;BME280;51875;49.994;14.052;2023-01-16T01:01:38;97250.69;;;3.81;100.00
65276;BME280;51875;49.994;14.052;2023-01-16T01:02:54;97249.97;;;3.75;100.00
65276;BME280;51875;49.994;14.052;2023-01-16T01:04:09;97249.91;;;3.76;100.00
65276;BME280;51875;49.994;14.052;2023-01-16T01:05:27;97247.94;;;3.89;100.00
65276;BME280;51875;49.994;14.052;2023-01-16T01:06:42;97254.28;;;3.74;100.00
65276;BME280;51875;49.994;14.052;2023-01-16T01:07:58;97248.41;;;3.66;100.00
65276;BME280;51875;49.994;14.052;2023-01-16T01:09:14;97252.84;;;3.59;100.00
65276;BME280;51875;49.994;14.052;2023-01-16T01:10:29;97248.19;;;3.77;100.00
65276;BME280;51875;49.994;14.052;2023-01-16T01:11:45;97249.09;;;3.74;100.00
65276;BME280;51875;49.994;14.052;2023-01-16T01:13:01;97248.28;;;3.72;100.00
65276;BME280;51875;49.994;14.052;2023-01-16T01:14:16;97246.56;;;3.71;100.00
65276;BME280;51875;49.994;14.052;2023-01-16T01:15:32;97246.16;;;3.93;100.00
65276;BME280;51875;49.994;14.052;2023-01-16T01:16:48;97241.53;;;4.07;100.00
65276;BME280;51875;49.994;14.052;2023-01-16T01:18:04;97231.38;;;3.96;100.00
65276;BME280;51875;49.994;14.052;2023-01-16T01:19:20;97229.28;;;3.73;100.00
65276;BME280;51875;49.994;14.052;2023-01-16T01:20:35;97244.53;;;3.42;100.00
65276;BME280;51875;49.994;14.052;2023-01-16T01:21:51;97240.03;;;3.53;100.00
65276;BME280;51875;49.994;14.052;2023-01-16T01:23:07;97234.94;;;3.48;100.00
65276;BME280;51875;49.994;14.052;2023-01-16T01:24:22;97235.41;;;3.69;100.00
65276;BME280;51875;49.994;14.052;2023-01-16T01:25:38;97227.94;;;3.53;100.00
65276;BME280;51875;49.994;14.052;2023-01-16T01:26:54;97226.91;;;3.62;100.00
65276;BME280;51875;49.994;14.052;2023-01-16T01:28:10;97223.41;;;3.65;100.00
65276;BME280;51875;49.994;14.052;2023-01-16T01:29:25;97230.06;;;3.78;100.00
65276;BME280;51875;49.994;14.052;2023-01-16T01:30:41;97234.81;;;3.55;100.00
65276;BME280;51875;49.994;14.052;2023-01-16T01:31:56;97235.81;;;3.47;100.00
65276;BME280;51875;49.994;14.052;2023-01-16T01:33:13;97228.63;;;3.63;100.00
65276;BME280;51875;49.994;14.052;2023-01-16T01:34:28;97239.09;;;3.57;100.00
65276;BME280;51875;49.994;14.052;2023-01-16T01:35:48;97234.53;;;3.70;100.00
65276;BME280;51875;49.994;14.052;2023-01-16T01:37:05;97237.25;;;3.64;100.00
65276;BME280;51875;49.994;14.052;2023-01-16T01:38:21;97234.53;;;3.70;100.00
65276;BME280;51875;49.994;14.052;2023-01-16T01:39:36;97236.06;;;3.80;100.00
65276;BME280;51875;49.994;14.052;2023-01-16T01:40:52;97238.66;;;3.79;100.00
65276;BME280;51875;49.994;14.052;2023-01-16T01:42:10;97233.53;;;3.77;100.00
65276;BME280;51875;49.994;14.052;2023-01-16T01:43:51;97230.25;;;3.67;100.00
65276;BME280;51875;49.994;14.052;2023-01-16T01:45:14;97231.91;;;3.72;100.00
65276;BME280;51875;49.994;14.052;2023-01-16T01:46:41;97234.53;;;3.70;100.00
65276;BME280;51875;49.994;14.052;2023-01-16T01:49:29;97228.63;;;3.63;100.00
65276;BME280;51875;49.994;14.052;2023-01-16T01:50:57;97228.19;;;3.41;100.00
65276;BME280;51875;49.994;14.052;2023-01-16T01:52:15;97238.69;;;3.32;100.00
65276;BME280;51875;49.994;14.052;2023-01-16T01:53:37;97230.78;;;3.41;100.00
65276;BME280;51875;49.994;14.052;2023-01-16T01:54:58;97238.41;;;3.47;100.00
65276;BME280;51875;49.994;14.052;2023-01-16T01:56:24;97234.47;;;3.28;100.00
65276;BME280;51875;49.994;14.052;2023-01-16T01:57:47;97231.66;;;3.40;100.00
65276;BME280;51875;49.994;14.052;2023-01-16T01:59:12;97229.28;;;3.29;100.00
65276;BME280;51875;49.994;14.052;2023-01-16T02:00:30;97222.78;;;3.53;100.00
65276;BME280;51875;49.994;14.052;2023-01-16T02:01:46;97224.25;;;3.65;100.00
65276;BME280;51875;49.994;14.052;2023-01-16T02:03:10;97226.25;;;3.51;100.00
65276;BME280;51875;49.994;14.052;2023-01-16T02:04:31;97230.00;;;3.36;100.00
65276;BME280;51875;49.994;14.052;2023-01-16T02:05:49;97224.41;;;3.58;100.00
65276;BME280;51875;49.994;14.052;2023-01-16T02:07:07;97217.34;;;3.66;100.00
65276;BME280;51875;49.994;14.052;2023-01-16T02:08:27;97207.41;;;3.44;100.00
65276;BME280;51875;49.994;14.052;2023-01-16T02:09:44;97209.91;;;3.49;100.00
65276;BME280;51875;49.994;14.052;2023-01-16T02:11:02;97210.41;;;3.68;100.00
65276;BME280;51875;49.994;14.052;2023-01-16T02:12:19;97208.28;;;3.45;100.00
65276;BME280;51875;49.994;14.052;2023-01-16T02:13:37;97193.28;;;3.61;100.00
65276;BME280;51875;49.994;14.052;2023-01-16T02:14:54;97195.94;;;3.58;100.00
65276;BME280;51875;49.994;14.052;2023-01-16T02:16:12;97198.69;;;3.50;100.00
65276;BME280;51875;49.994;14.052;2023-01-16T02:17:46;97193.72;;;3.39;100.00
65276;BME280;51875;49.994;14.052;2023-01-16T02:30:13;97167.38;;;3.62;100.00
65276;BME280;51875;49.994;14.052;2023-01-16T02:31:55;97159.06;;;3.48;100.00
65276;BME280;51875;49.994;14.052;2023-01-16T02:37:49;97153.72;;;3.56;100.00
65276;BME280;51875;49.994;14.052;2023-01-16T02:39:18;97148.16;;;3.74;100.00
65276;BME280;51875;49.994;14.052;2023-01-16T02:41:02;97143.78;;;3.76;100.00
65276;BME280;51875;49.994;14.052;2023-01-16T02:43:50;97147.06;;;3.85;100.00
65276;BME280;51875;49.994;14.052;2023-01-16T02:45:17;97150.91;;;3.66;100.00
65276;BME280;51875;49.994;14.052;2023-01-16T02:46:48;97149.25;;;3.62;100.00
65276;BME280;51875;49.994;14.052;2023-01-16T02:48:23;97148.72;;;3.46;100.00
65276;BME280;51875;49.994;14.052;2023-01-16T02:49:43;97143.03;;;3.73;100.00
65276;BME280;51875;49.994;14.052;2023-01-16T02:51:11;97137.84;;;3.73;100.00
65276;BME280;51875;49.994;14.052;2023-01-16T02:52:36;97143.03;;;3.73;100.00
65276;BME280;51875;49.994;14.052;2023-01-16T02:54:00;97140.75;;;3.57;100.00
65276;BME280;51875;49.994;14.052;2023-01-16T02:55:41;97147.75;;;3.93;100.00
65276;BME280;51875;49.994;14.052;2023-01-16T02:57:06;97144.91;;;4.04;100.00
65276;BME280;51875;49.994;14.052;2023-01-16T02:58:24;97141.75;;;3.91;100.00
65276;BME280;51875;49.994;14.052;2023-01-16T02:59:41;97141.63;;;3.95;100.00
65276;BME280;51875;49.994;14.052;2023-01-16T03:00:58;97139.81;;;4.01;100.00
65276;BME280;51875;49.994;14.052;2023-01-16T03:02:14;97135.19;;;3.76;100.00
65276;BME280;51875;49.994;14.052;2023-01-16T03:04:56;97130.16;;;3.68;100.00
65276;BME280;51875;49.994;14.052;2023-01-16T03:08:05;97124.63;;;3.85;100.00
65276;BME280;51875;49.994;14.052;2023-01-16T03:09:45;97122.88;;;3.86;100.00
65276;BME280;51875;49.994;14.052;2023-01-16T03:11:12;97122.84;;;3.87;100.00
65276;BME280;51875;49.994;14.052;2023-01-16T03:13:02;97118.44;;;3.51;100.00
65276;BME280;51875;49.994;14.052;2023-01-16T03:14:28;97116.31;;;3.71;100.00
65276;BME280;51875;49.994;14.052;2023-01-16T03:17:43;97112.75;;;3.75;100.00
65276;BME280;51875;49.994;14.052;2023-01-16T03:21:20;97105.72;;;3.81;100.00
65276;BME280;51875;49.994;14.052;2023-01-16T03:22:47;97101.44;;;3.79;100.00
65276;BME280;51875;49.994;14.052;2023-01-16T03:25:54;97096.31;;;3.36;100.00
65276;BME280;51875;49.994;14.052;2023-01-16T03:27:31;97104.09;;;3.35;100.00
65276;BME280;51875;49.994;14.052;2023-01-16T03:29:10;97102.22;;;3.43;100.00
65276;BME280;51875;49.994;14.052;2023-01-16T03:30:54;97097.13;;;3.38;100.00
65276;BME280;51875;49.994;14.052;2023-01-16T03:32:28;97094.91;;;3.21;100.00
65276;BME280;51875;49.994;14.052;2023-01-16T03:35:26;97092.25;;;3.24;100.00
65276;BME280;51875;49.994;14.052;2023-01-16T03:38:11;97086.72;;;3.42;100.00
65276;BME280;51875;49.994;14.052;2023-01-16T03:39:41;97080.44;;;3.53;100.00
65276;BME280;51875;49.994;14.052;2023-01-16T03:41:00;97085.78;;;3.46;100.00
65276;BME280;51875;49.994;14.052;2023-01-16T03:42:50;97082.16;;;3.53;100.00
65276;BME280;51875;49.994;14.052;2023-01-16T03:44:13;97072.69;;;3.52;100.00
65276;BME280;51875;49.994;14.052;2023-01-16T03:45:40;97069.22;;;3.53;100.00
65276;BME280;51875;49.994;14.052;2023-01-16T03:46:59;97073.22;;;3.68;100.00
65276;BME280;51875;49.994;14.052;2023-01-16T03:48:22;97073.41;;;3.60;100.00
65276;BME280;51875;49.994;14.052;2023-01-16T03:49:43;97080.84;;;3.74;100.00
65276;BME280;51875;49.994;14.052;2023-01-16T03:51:06;97073.97;;;3.73;100.00
65276;BME280;51875;49.994;14.052;2023-01-16T03:52:26;97073.50;;;3.54;100.00
65276;BME280;51875;49.994;14.052;2023-01-16T03:53:46;97070.34;;;3.41;100.00
65276;BME280;51875;49.994;14.052;2023-01-16T03:56:45;97053.25;;;3.73;100.00
65276;BME280;51875;49.994;14.052;2023-01-16T03:58:06;97058.41;;;3.34;100.00
65276;BME280;51875;49.994;14.052;2023-01-16T03:59:23;97058.69;;;3.61;100.00
65276;BME280;51875;49.994;14.052;2023-01-16T04:00:49;97054.13;;;3.74;100.00
65276;BME280;51875;49.994;14.052;2023-01-16T04:02:30;97056.91;;;3.64;100.00
65276;BME280;51875;49.994;14.052;2023-01-16T04:03:56;97056.38;;;3.50;100.00
65276;BME280;51875;49.994;14.052;2023-01-16T04:05:23;97058.97;;;3.48;100.00
65276;BME280;51875;49.994;14.052;2023-01-16T04:06:48;97051.44;;;3.39;100.00
65276;BME280;51875;49.994;14.052;2023-01-16T04:08:18;97048.59;;;3.50;100.00
65276;BME280;51875;49.994;14.052;2023-01-16T04:09:45;97041.84;;;3.02;100.00
65276;BME280;51875;49.994;14.052;2023-01-16T04:11:03;97038.78;;;2.82;100.00
65276;BME280;51875;49.994;14.052;2023-01-16T04:12:22;97036.34;;;3.17;100.00
65276;BME280;51875;49.994;14.052;2023-01-16T04:13:40;97030.09;;;3.29;100.00
65276;BME280;51875;49.994;14.052;2023-01-16T04:15:01;97033.84;;;3.14;100.00
65276;BME280;51875;49.994;14.052;2023-01-16T04:16:17;97025.13;;;3.18;100.00
65276;BME280;51875;49.994;14.052;2023-01-16T04:17:36;97024.06;;;3.27;100.00
65276;BME280;51875;49.994;14.052;2023-01-16T04:18:53;97021.97;;;3.45;100.00
65276;BME280;51875;49.994;14.052;2023-01-16T04:20:11;97025.94;;;3.20;100.00
65276;BME280;51875;49.994;14.052;2023-01-16T04:21:27;97022.50;;;3.21;100.00
65276;BME280;51875;49.994;14.052;2023-01-16T04:22:47;97015.31;;;3.33;100.00
65276;BME280;51875;49.994;14.052;2023-01-16T04:24:04;97012.19;;;3.18;100.00
65276;BME280;51875;49.994;14.052;2023-01-16T04:25:20;97004.88;;;3.37;100.00
65276;BME280;51875;49.994;14.052;2023-01-16T04:26:36;96996.66;;;3.20;100.00
65276;BME280;51875;49.994;14.052;2023-01-16T04:27:51;97006.13;;;3.21;100.00
65276;BME280;51875;49.994;14.052;2023-01-16T04:29:07;96999.06;;;3.28;100.00
65276;BME280;51875;49.994;14.052;2023-01-16T04:30:23;97001.72;;;3.24;100.00
65276;BME280;51875;49.994;14.052;2023-01-16T04:31:38;97001.66;;;3.28;100.00
65276;BME280;51875;49.994;14.052;2023-01-16T04:32:54;96985.22;;;2.89;100.00
65276;BME280;51875;49.994;14.052;2023-01-16T04:34:09;96992.94;;;3.32;100.00
65276;BME280;51875;49.994;14.052;2023-01-16T04:35:25;96987.69;;;3.35;100.00
65276;BME280;51875;49.994;14.052;2023-01-16T04:36:40;96984.91;;;3.44;100.00
65276;BME280;51875;49.994;14.052;2023-01-16T04:37:56;96989.09;;;3.50;100.00
65276;BME280;51875;49.994;14.052;2023-01-16T04:39:12;96994.63;;;3.33;100.00
65276;BME280;51875;49.994;14.052;2023-01-16T04:40:28;96986.81;;;2.96;100.00
65276;BME280;51875;49.994;14.052;2023-01-16T04:41:43;96985.41;;;3.21;100.00
65276;BME280;51875;49.994;14.052;2023-01-16T04:43:02;96985.41;;;3.21;100.00
65276;BME280;51875;49.994;14.052;2023-01-16T04:44:17;96976.16;;;3.48;100.00
65276;BME280;51875;49.994;14.052;2023-01-16T04:45:33;96979.09;;;3.34;100.00
65276;BME280;51875;49.994;14.052;2023-01-16T04:46:48;96976.69;;;3.25;100.00
65276;BME280;51875;49.994;14.052;2023-01-16T04:48:04;96969.00;;;3.23;100.00
65276;BME280;51875;49.994;14.052;2023-01-16T04:49:20;96969.47;;;3.39;100.00
65276;BME280;51875;49.994;14.052;2023-01-16T04:50:35;96972.34;;;3.27;100.00
65276;BME280;51875;49.994;14.052;2023-01-16T04:51:51;96960.34;;;3.61;100.00
65276;BME280;51875;49.994;14.052;2023-01-16T04:53:07;96958.41;;;3.33;100.00
65276;BME280;51875;49.994;14.052;2023-01-16T04:54:22;96959.19;;;3.38;100.00
65276;BME280;51875;49.994;14.052;2023-01-16T04:55:38;96961.19;;;3.25;100.00
65276;BME280;51875;49.994;14.052;2023-01-16T04:56:54;96953.00;;;3.44;100.00
65276;BME280;51875;49.994;14.052;2023-01-16T04:58:09;96956.22;;;3.53;100.00
65276;BME280;51875;49.994;14.052;2023-01-16T04:59:25;96947.69;;;3.50;100.00
65276;BME280;51875;49.994;14.052;2023-01-16T05:00:40;96946.78;;;3.52;100.00
65276;BME280;51875;49.994;14.052;2023-01-16T05:01:56;96953.88;;;3.79;100.00
65276;BME280;51875;49.994;14.052;2023-01-16T05:03:12;96947.41;;;3.61;100.00
65276;BME280;51875;49.994;14.052;2023-01-16T05:04:27;96948.97;;;3.32;100.00
65276;BME280;51875;49.994;14.052;2023-01-16T05:05:43;96954.44;;;3.56;100.00
65276;BME280;51875;49.994;14.052;2023-01-16T05:06:58;96947.78;;;3.45;100.00
65276;BME280;51875;49.994;14.052;2023-01-16T05:08:14;96941.50;;;3.57;100.00
65276;BME280;51875;49.994;14.052;2023-01-16T05:09:33;96945.69;;;3.61;100.00
65276;BME280;51875;49.994;14.052;2023-01-16T05:10:49;96948.22;;;3.27;100.00
65276;BME280;51875;49.994;14.052;2023-01-16T05:12:04;96938.13;;;3.53;100.00
65276;BME280;51875;49.994;14.052;2023-01-16T05:13:21;96943.00;;;3.66;100.00
65276;BME280;51875;49.994;14.052;2023-01-16T05:14:36;96939.22;;;3.79;100.00
65276;BME280;51875;49.994;14.052;2023-01-16T05:15:52;96936.16;;;3.63;100.00
65276;BME280;51875;49.994;14.052;2023-01-16T05:17:08;96931.00;;;3.62;100.00
65276;BME280;51875;49.994;14.052;2023-01-16T05:18:24;96924.47;;;3.47;100.00
65276;BME280;51875;49.994;14.052;2023-01-16T05:19:40;96928.34;;;3.29;100.00
65276;BME280;51875;49.994;14.052;2023-01-16T05:20:56;96930.53;;;3.46;100.00
65276;BME280;51875;49.994;14.052;2023-01-16T05:22:11;96927.16;;;3.42;100.00
65276;BME280;51875;49.994;14.052;2023-01-16T05:23:27;96924.50;;;3.45;100.00
65276;BME280;51875;49.994;14.052;2023-01-16T05:24:42;96924.06;;;3.28;100.00
65276;BME280;51875;49.994;14.052;2023-01-16T05:25:59;96921.50;;;3.26;100.00
65276;BME280;51875;49.994;14.052;2023-01-16T05:27:14;96921.00;;;3.48;100.00
65276;BME280;51875;49.994;14.052;2023-01-16T05:28:30;96917.53;;;3.47;100.00
65276;BME280;51875;49.994;14.052;2023-01-16T05:29:46;96913.63;;;3.67;100.00
65276;BME280;51875;49.994;14.052;2023-01-16T05:31:02;96907.97;;;3.51;100.00
65276;BME280;51875;49.994;14.052;2023-01-16T05:32:18;96907.97;;;3.51;100.00
65276;BME280;51875;49.994;14.052;2023-01-16T05:33:33;96915.00;;;3.46;100.00
65276;BME280;51875;49.994;14.052;2023-01-16T05:34:49;96916.25;;;3.65;100.00
65276;BME280;51875;49.994;14.052;2023-01-16T05:36:08;96904.38;;;3.58;100.00
65276;BME280;51875;49.994;14.052;2023-01-16T05:37:24;96915.34;;;3.68;100.00
65276;BME280;51875;49.994;14.052;2023-01-16T05:38:39;96913.34;;;3.78;100.00
65276;BME280;51875;49.994;14.052;2023-01-16T05:39:55;96911.63;;;3.78;100.00
65276;BME280;51875;49.994;14.052;2023-01-16T05:41:13;96912.19;;;3.90;100.00
65276;BME280;51875;49.994;14.052;2023-01-16T05:42:28;96907.16;;;3.85;100.00
65276;BME280;51875;49.994;14.052;2023-01-16T05:43:44;96903.41;;;3.95;100.00
65276;BME280;51875;49.994;14.052;2023-01-16T05:44:59;96902.84;;;3.84;100.00
65276;BME280;51875;49.994;14.052;2023-01-16T05:46:15;96909.94;;;3.77;100.00
65276;BME280;51875;49.994;14.052;2023-01-16T05:47:30;96905.56;;;3.79;100.00
65276;BME280;51875;49.994;14.052;2023-01-16T05:48:46;96904.59;;;3.84;100.00
65276;BME280;51875;49.994;14.052;2023-01-16T05:50:02;96900.34;;;3.81;100.00
65276;BME280;51875;49.994;14.052;2023-01-16T05:51:18;96894.72;;;3.98;100.00
65276;BME280;51875;49.994;14.052;2023-01-16T05:52:34;96893.16;;;3.91;100.00
65276;BME280;51875;49.994;14.052;2023-01-16T05:53:53;96892.69;;;3.76;100.00
65276;BME280;51875;49.994;14.052;2023-01-16T05:55:08;96890.84;;;3.81;100.00
65276;BME280;51875;49.994;14.052;2023-01-16T05:56:24;96888.72;;;3.96;100.00
65276;BME280;51875;49.994;14.052;2023-01-16T05:57:40;96887.50;;;3.76;100.00
65276;BME280;51875;49.994;14.052;2023-01-16T05:58:56;96884.06;;;4.09;100.00
65276;BME280;51875;49.994;14.052;2023-01-16T06:00:13;96873.31;;;3.91;100.00
65276;BME280;51875;49.994;14.052;2023-01-16T06:01:28;96869.72;;;3.97;100.00
65276;BME280;51875;49.994;14.052;2023-01-16T06:02:44;96871.47;;;4.28;100.00
65276;BME280;51875;49.994;14.052;2023-01-16T06:04:01;96871.41;;;4.30;100.00
65276;BME280;51875;49.994;14.052;2023-01-16T06:05:17;96866.06;;;4.36;100.00
65276;BME280;51875;49.994;14.052;2023-01-16T06:06:33;96862.69;;;4.32;100.00
65276;BME280;51875;49.994;14.052;2023-01-16T06:07:53;96859.59;;;4.21;100.00
65276;BME280;51875;49.994;14.052;2023-01-16T06:09:09;96861.91;;;3.99;100.00
65276;BME280;51875;49.994;14.052;2023-01-16T06:10:25;96852.97;;;4.09;100.00
65276;BME280;51875;49.994;14.052;2023-01-16T06:11:41;96846.34;;;3.67;100.00
65276;BME280;51875;49.994;14.052;2023-01-16T06:12:57;96855.19;;;3.91;100.00
65276;BME280;51875;49.994;14.052;2023-01-16T06:14:12;96844.47;;;3.72;100.00
65276;BME280;51875;49.994;14.052;2023-01-16T06:15:28;96838.84;;;3.89;100.00
65276;BME280;51875;49.994;14.052;2023-01-16T06:16:44;96838.78;;;3.59;100.00
65276;BME280;51875;49.994;14.052;2023-01-16T06:18:00;96837.19;;;3.87;100.00
65276;BME280;51875;49.994;14.052;2023-01-16T06:19:15;96842.00;;;3.67;100.00
65276;BME280;51875;49.994;14.052;2023-01-16T06:20:31;96834.41;;;3.61;100.00
65276;BME280;51875;49.994;14.052;2023-01-16T06:21:47;96831.53;;;3.39;100.00
65276;BME280;51875;49.994;14.052;2023-01-16T06:23:02;96831.53;;;3.72;100.00
65276;BME280;51875;49.994;14.052;2023-01-16T06:24:18;96825.47;;;3.73;100.00
65276;BME280;51875;49.994;14.052;2023-01-16T06:25:33;96816.81;;;3.74;100.00
65276;BME280;51875;49.994;14.052;2023-01-16T06:26:49;96807.75;;;3.58;100.00
65276;BME280;51875;49.994;14.052;2023-01-16T06:28:04;96811.84;;;3.66;100.00
65276;BME280;51875;49.994;14.052;2023-01-16T06:29:20;96799.38;;;3.49;100.00
65276;BME280;51875;49.994;14.052;2023-01-16T06:30:36;96800.72;;;3.63;100.00
65276;BME280;51875;49.994;14.052;2023-01-16T06:31:51;96805.47;;;3.47;100.00
65276;BME280;51875;49.994;14.052;2023-01-16T06:33:07;96795.41;;;3.67;100.00
65276;BME280;51875;49.994;14.052;2023-01-16T06:34:22;96802.50;;;3.61;100.00
65276;BME280;51875;49.994;14.052;2023-01-16T06:35:38;96797.84;;;3.74;100.00
65276;BME280;51875;49.994;14.052;2023-01-16T06:36:54;96790.84;;;3.77;100.00
65276;BME280;51875;49.994;14.052;2023-01-16T06:38:09;96783.75;;;3.52;100.00
65276;BME280;51875;49.994;14.052;2023-01-16T06:39:25;96789.25;;;3.40;100.00
65276;BME280;51875;49.994;14.052;2023-01-16T06:40:40;96795.41;;;3.67;100.00
65276;BME280;51875;49.994;14.052;2023-01-16T06:41:59;96799.13;;;3.90;100.00
65276;BME280;51875;49.994;14.052;2023-01-16T06:43:15;96788.50;;;3.68;100.00
65276;BME280;51875;49.994;14.052;2023-01-16T06:44:32;96792.94;;;3.63;100.00
65276;BME280;51875;49.994;14.052;2023-01-16T06:45:48;96793.25;;;3.84;100.00
65276;BME280;51875;49.994;14.052;2023-01-16T06:47:04;96789.28;;;3.72;100.00
65276;BME280;51875;49.994;14.052;2023-01-16T06:48:22;96777.09;;;3.75;100.00
65276;BME280;51875;49.994;14.052;2023-01-16T06:49:38;96780.22;;;3.55;100.00
65276;BME280;51875;49.994;14.052;2023-01-16T06:50:53;96784.88;;;3.42;100.00
65276;BME280;51875;49.994;14.052;2023-01-16T06:52:09;96786.25;;;3.56;100.00
65276;BME280;51875;49.994;14.052;2023-01-16T06:53:25;96780.22;;;3.55;100.00
65276;BME280;51875;49.994;14.052;2023-01-16T06:54:40;96774.97;;;3.58;100.00
65276;BME280;51875;49.994;14.052;2023-01-16T06:55:56;96771.88;;;3.77;100.00
65276;BME280;51875;49.994;14.052;2023-01-16T06:57:11;96770.75;;;3.87;100.00
65276;BME280;51875;49.994;14.052;2023-01-16T06:58:29;96770.31;;;3.71;100.00
65276;BME280;51875;49.994;14.052;2023-01-16T06:59:44;96773.59;;;3.76;100.00
65276;BME280;51875;49.994;14.052;2023-01-16T07:01:00;96774.00;;;3.62;100.00
65276;BME280;51875;49.994;14.052;2023-01-16T07:02:16;96770.81;;;3.52;100.00
65276;BME280;51875;49.994;14.052;2023-01-16T07:03:32;96771.56;;;3.56;100.00
65276;BME280;51875;49.994;14.052;2023-01-16T07:04:48;96775.88;;;3.57;100.00
65276;BME280;51875;49.994;14.052;2023-01-16T07:06:03;96768.69;;;3.67;100.00
65276;BME280;51875;49.994;14.052;2023-01-16T07:07:19;96765.16;;;3.70;100.00
65276;BME280;51875;49.994;14.052;2023-01-16T07:08:35;96768.84;;;3.61;100.00
65276;BME280;51875;49.994;14.052;2023-01-16T07:09:50;96772.91;;;3.70;100.00
65276;BME280;51875;49.994;14.052;2023-01-16T07:11:06;96771.31;;;3.65;100.00
65276;BME280;51875;49.994;14.052;2023-01-16T07:12:21;96767.28;;;3.55;100.00
65276;BME280;51875;49.994;14.052;2023-01-16T07:13:37;96772.41;;;3.57;100.00
65276;BME280;51875;49.994;14.052;2023-01-16T07:14:53;96768.25;;;3.51;100.00
65276;BME280;51875;49.994;14.052;2023-01-16T07:16:27;96762.84;;;3.60;100.00
65276;BME280;51875;49.994;14.052;2023-01-16T07:18:01;96765.22;;;3.68;100.00
65276;BME280;51875;49.994;14.052;2023-01-16T07:19:35;96761.13;;;3.26;100.00
65276;BME280;51875;49.994;14.052;2023-01-16T07:21:12;96754.94;;;3.33;100.00
65276;BME280;51875;49.994;14.052;2023-01-16T07:22:47;96759.38;;;2.93;100.00
65276;BME280;51875;49.994;14.052;2023-01-16T07:24:06;96760.81;;;3.05;100.00